createdAt,value
2022-08-10T00:00:22.418Z,22.12
2022-08-10T00:01:24.650Z,22.17
2022-08-10T00:02:27.561Z,22.13
2022-08-10T00:03:29.787Z,22.20
2022-08-10T00:04:31.958Z,22.11
2022-08-10T00:05:42.987Z,22.17
2022-08-10T00:06:46.113Z,22.15
2022-08-10T00:07:48.554Z,22.11
2022-08-10T00:08:50.854Z,22.10
2022-08-10T00:09:53.033Z,22.03
2022-08-10T00:10:57.028Z,22.27
2022-08-10T00:11:59.219Z,22.08
2022-08-10T00:13:01.507Z,22.08
2022-08-10T00:14:03.797Z,22.08
2022-08-10T00:15:07.405Z,22.27
2022-08-10T00:16:09.926Z,22.12
2022-08-10T00:17:12.158Z,22.05
2022-08-10T00:18:34.431Z,22.07
2022-08-10T00:20:03.212Z,22.03
2022-08-10T00:20:59.007Z,22.05
2022-08-10T00:22:01.191Z,21.99
2022-08-10T00:23:03.517Z,21.98
2022-08-10T00:24:05.845Z,21.98
2022-08-10T00:25:08.322Z,21.96
2022-08-10T00:26:10.701Z,21.92
2022-08-10T00:27:52.093Z,21.92
2022-08-10T00:28:35.314Z,21.96
2022-08-10T00:29:37.536Z,21.96
2022-08-10T00:30:39.959Z,21.92
2022-08-10T00:31:55.866Z,21.88
2022-08-10T00:33:01.504Z,21.81
2022-08-10T00:34:03.746Z,21.82
2022-08-10T00:35:06.262Z,21.82
2022-08-10T00:36:08.479Z,21.81
2022-08-10T00:37:10.679Z,21.80
2022-08-10T00:38:12.958Z,21.82
2022-08-10T00:39:16.059Z,21.80
2022-08-10T00:40:19.046Z,21.85
2022-08-10T00:41:37.577Z,21.81
2022-08-10T00:42:39.946Z,21.80
2022-08-10T00:43:42.149Z,21.76
2022-08-10T00:44:48.938Z,21.96
2022-08-10T00:45:59.530Z,21.82
2022-08-10T00:47:02.502Z,21.68
2022-08-10T00:48:04.926Z,21.67
2022-08-10T00:49:07.417Z,21.69
2022-08-10T00:50:10.110Z,21.66
2022-08-10T00:51:12.678Z,21.58
2022-08-10T00:52:16.947Z,21.76
2022-08-10T00:53:19.148Z,21.64
2022-08-10T00:54:23.960Z,21.64
2022-08-10T00:55:27.565Z,21.63
2022-08-10T00:57:12.214Z,21.60
2022-08-10T00:57:55.020Z,21.68
2022-08-10T00:58:57.766Z,21.64
2022-08-10T01:00:00.734Z,21.60
2022-08-10T01:01:03.223Z,21.55
2022-08-10T01:02:10.298Z,21.56
2022-08-10T01:03:15.567Z,21.67
2022-08-10T01:04:39.997Z,21.53
2022-08-10T01:05:51.066Z,21.81
2022-08-10T01:07:03.044Z,21.94
2022-08-10T01:08:36.384Z,21.91
2022-08-10T01:09:56.860Z,21.87
2022-08-10T01:11:42.366Z,21.78
2022-08-10T01:12:40.532Z,21.46
2022-08-10T01:14:01.001Z,21.85
2022-08-10T01:15:18.405Z,21.83
2022-08-10T01:16:43.130Z,21.45
2022-08-10T01:17:54.347Z,21.82
2022-08-10T01:19:20.787Z,21.81
2022-08-10T01:20:30.039Z,21.70
2022-08-10T01:21:55.210Z,21.75
2022-08-10T01:23:01.932Z,21.69
2022-08-10T01:24:25.758Z,21.66
2022-08-10T01:26:12.562Z,21.73
2022-08-10T01:27:13.010Z,21.66
2022-08-10T01:28:17.948Z,21.64
2022-08-10T01:30:02.006Z,21.76
2022-08-10T01:31:08.963Z,21.51
2022-08-10T01:32:14.972Z,21.52
2022-08-10T01:33:31.727Z,21.56
2022-08-10T01:34:59.508Z,21.53
2022-08-10T01:36:18.624Z,21.58
2022-08-10T01:37:26.625Z,21.43
2022-08-10T01:38:34.598Z,21.42
2022-08-10T01:39:43.945Z,21.43
2022-08-10T01:41:08.514Z,21.50
2022-08-10T01:42:16.662Z,21.37
2022-08-10T01:43:20.635Z,21.22
2022-08-10T01:44:37.513Z,21.53
2022-08-10T01:45:46.094Z,21.37
2022-08-10T01:46:57.240Z,21.40
2022-08-10T01:48:19.742Z,21.22
2022-08-10T01:49:24.818Z,21.28
2022-08-10T01:50:59.118Z,21.29
2022-08-10T01:52:05.307Z,21.08
2022-08-10T01:53:16.861Z,21.22
2022-08-10T01:54:21.352Z,21.06
2022-08-10T01:55:25.015Z,20.84
2022-08-10T01:56:30.813Z,21.03
2022-08-10T01:57:34.128Z,20.80
2022-08-10T01:58:38.332Z,20.88
2022-08-10T01:59:43.865Z,20.92
2022-08-10T02:01:02.893Z,20.81
2022-08-10T02:02:09.382Z,20.89
2022-08-10T02:03:14.322Z,20.87
2022-08-10T02:04:19.481Z,20.83
2022-08-10T02:05:24.230Z,20.84
2022-08-10T02:06:30.085Z,20.87
2022-08-10T02:07:37.806Z,20.82
2022-08-10T02:08:43.346Z,20.73
2022-08-10T02:09:52.481Z,20.92
2022-08-10T02:10:56.850Z,20.78
2022-08-10T02:12:08.519Z,20.85
2022-08-10T02:13:15.444Z,20.77
2022-08-10T02:14:22.791Z,20.70
2022-08-10T02:15:30.881Z,20.84
2022-08-10T02:16:35.696Z,20.74
2022-08-10T02:18:00.637Z,20.82
2022-08-10T02:19:06.316Z,20.79
2022-08-10T02:20:21.186Z,20.88
2022-08-10T02:21:24.521Z,20.76
2022-08-10T02:22:38.097Z,20.72
2022-08-10T02:23:43.437Z,20.76
2022-08-10T02:24:46.947Z,20.65
2022-08-10T02:25:51.663Z,20.67
2022-08-10T02:26:56.543Z,20.57
2022-08-10T02:28:04.519Z,20.67
2022-08-10T02:29:08.846Z,20.63
2022-08-10T02:30:12.610Z,20.67
2022-08-10T02:31:18.453Z,20.70
2022-08-10T02:32:37.804Z,20.59
2022-08-10T02:33:56.712Z,20.63
2022-08-10T02:35:03.055Z,20.65
2022-08-10T02:36:08.169Z,20.59
2022-08-10T02:37:13.438Z,20.48
2022-08-10T02:38:19.979Z,20.68
2022-08-10T02:39:24.652Z,20.61
2022-08-10T02:45:13.339Z,20.66
2022-08-10T02:45:14.588Z,20.48
2022-08-10T02:45:18.529Z,20.72
2022-08-10T02:45:18.782Z,20.84
2022-08-10T02:46:28.643Z,20.75
2022-08-10T02:47:50.766Z,20.82
2022-08-10T02:49:02.688Z,20.76
2022-08-10T02:50:26.777Z,20.76
2022-08-10T02:52:08.040Z,20.77
2022-08-10T02:53:55.385Z,20.82
2022-08-10T02:54:58.844Z,20.65
2022-08-10T02:56:25.740Z,20.37
2022-08-10T02:57:32.358Z,20.59
2022-08-10T02:58:44.754Z,20.70
2022-08-10T02:59:50.749Z,20.61
2022-08-10T03:00:57.227Z,20.55
2022-08-10T03:02:04.420Z,20.58
2022-08-10T03:03:08.488Z,20.27
2022-08-10T03:04:21.563Z,20.58
2022-08-10T03:05:45.473Z,20.35
2022-08-10T03:07:02.299Z,20.61
2022-08-10T03:08:07.034Z,20.45
2022-08-10T03:09:15.208Z,20.45
2022-08-10T03:10:25.814Z,20.51
2022-08-10T03:12:34.839Z,20.43
2022-08-10T03:12:59.350Z,20.42
2022-08-10T03:14:03.385Z,20.20
2022-08-10T03:15:06.446Z,20.19
2022-08-10T03:16:10.304Z,20.30
2022-08-10T03:17:13.691Z,20.10
2022-08-10T03:18:18.546Z,20.23
2022-08-10T03:20:35.613Z,20.18
2022-08-10T03:20:45.061Z,20.10
2022-08-10T03:21:49.823Z,20.16
2022-08-10T03:22:53.911Z,20.08
2022-08-10T03:23:59.511Z,20.14
2022-08-10T03:25:02.670Z,20.06
2022-08-10T03:26:05.501Z,20.04
2022-08-10T03:27:08.642Z,20.01
2022-08-10T03:28:11.448Z,19.99
2022-08-10T03:29:22.708Z,20.12
2022-08-10T03:30:32.377Z,19.96
2022-08-10T03:31:40.328Z,20.06
2022-08-10T03:32:46.687Z,20.27
2022-08-10T03:33:50.070Z,19.96
2022-08-10T03:34:53.748Z,19.94
2022-08-10T03:36:42.356Z,19.94
2022-08-10T03:37:18.743Z,19.94
2022-08-10T03:38:20.980Z,19.93
2022-08-10T03:39:23.206Z,19.91
2022-08-10T03:40:45.325Z,20.12
2022-08-10T03:41:53.487Z,20.19
2022-08-10T03:42:58.351Z,20.07
2022-08-10T03:44:03.062Z,20.12
2022-08-10T03:45:07.959Z,20.12
2022-08-10T03:46:12.163Z,19.90
2022-08-10T03:47:17.290Z,20.13
2022-08-10T03:48:19.852Z,19.96
2022-08-10T03:49:23.267Z,19.93
2022-08-10T03:50:45.339Z,20.05
2022-08-10T03:51:51.435Z,19.96
2022-08-10T03:52:55.202Z,19.94
2022-08-10T03:54:04.539Z,20.08
2022-08-10T03:55:09.742Z,19.96
2022-08-10T03:56:28.952Z,19.93
2022-08-10T03:57:33.777Z,19.91
2022-08-10T03:58:36.102Z,19.89
2022-08-10T03:59:38.720Z,19.88
2022-08-10T04:00:41.768Z,20.03
2022-08-10T04:02:45.763Z,19.99
2022-08-10T04:03:08.279Z,19.86
2022-08-10T04:04:13.041Z,19.96
2022-08-10T04:05:17.850Z,19.87
2022-08-10T04:06:20.236Z,19.79
2022-08-10T04:07:22.654Z,19.83
2022-08-10T04:08:25.110Z,19.78
2022-08-10T04:09:54.440Z,20.03
2022-08-10T04:10:53.262Z,19.81
2022-08-10T04:11:55.740Z,19.80
2022-08-10T04:12:59.039Z,19.81
2022-08-10T04:14:01.312Z,19.80
2022-08-10T04:15:03.675Z,19.81
2022-08-10T04:16:07.414Z,19.85
2022-08-10T04:17:13.904Z,19.71
2022-08-10T04:18:16.441Z,19.73
2022-08-10T04:19:19.996Z,19.96
2022-08-10T04:20:36.851Z,20.20
2022-08-10T04:21:42.622Z,20.07
2022-08-10T04:22:51.702Z,20.08
2022-08-10T04:23:56.640Z,20.11
2022-08-10T04:25:02.246Z,20.09
2022-08-10T04:26:04.831Z,19.95
2022-08-10T04:27:07.179Z,19.89
2022-08-10T04:28:10.649Z,19.92
2022-08-10T04:29:14.174Z,20.10
2022-08-10T04:30:17.592Z,20.04
2022-08-10T04:31:21.200Z,20.13
2022-08-10T04:32:25.452Z,20.21
2022-08-10T04:33:30.108Z,20.31
2022-08-10T04:34:33.505Z,20.18
2022-08-10T04:35:37.103Z,20.26
2022-08-10T04:36:40.052Z,20.21
2022-08-10T04:37:47.388Z,20.30
2022-08-10T04:38:51.487Z,20.37
2022-08-10T04:39:54.256Z,20.34
2022-08-10T04:40:56.927Z,20.41
2022-08-10T04:41:59.807Z,20.41
2022-08-10T04:43:11.849Z,20.63
2022-08-10T04:44:15.814Z,20.57
2022-08-10T04:45:18.543Z,20.58
2022-08-10T04:46:40.998Z,20.53
2022-08-10T04:47:57.547Z,20.61
2022-08-10T04:49:05.679Z,20.79
2022-08-10T04:50:27.852Z,20.76
2022-08-10T04:51:30.051Z,20.84
2022-08-10T04:52:32.406Z,20.93
2022-08-10T04:54:04.135Z,20.94
2022-08-10T04:54:56.887Z,21.07
2022-08-10T04:55:59.105Z,21.09
2022-08-10T04:57:01.451Z,21.12
2022-08-10T04:58:04.001Z,21.21
2022-08-10T04:59:10.875Z,21.52
2022-08-10T05:00:19.244Z,21.28
2022-08-10T05:01:24.769Z,21.34
2022-08-10T05:02:29.624Z,21.38
2022-08-10T05:03:33.055Z,21.40
2022-08-10T05:04:39.049Z,21.47
2022-08-10T05:05:41.672Z,21.47
2022-08-10T05:06:43.858Z,21.47
2022-08-10T05:07:54.302Z,21.57
2022-08-10T05:08:59.890Z,21.76
2022-08-10T05:10:06.576Z,21.77
2022-08-10T05:11:10.528Z,21.76
2022-08-10T05:12:27.075Z,21.95
2022-08-10T05:13:29.459Z,21.75
2022-08-10T05:14:31.664Z,21.83
2022-08-10T05:15:33.842Z,21.85
2022-08-10T05:16:36.039Z,21.96
2022-08-10T05:17:39.625Z,22.15
2022-08-10T05:18:41.859Z,22.07
2022-08-10T05:20:04.006Z,22.05
2022-08-10T05:21:06.259Z,22.20
2022-08-10T05:22:08.632Z,22.25
2022-08-10T05:23:10.864Z,22.33
2022-08-10T05:24:13.044Z,22.39
2022-08-10T05:25:17.896Z,22.69
2022-08-10T05:26:20.115Z,22.46
2022-08-10T05:27:22.355Z,22.58
2022-08-10T05:28:24.542Z,22.61
2022-08-10T05:29:33.918Z,22.74
2022-08-10T05:30:36.145Z,22.79
2022-08-10T05:31:38.403Z,22.90
2022-08-10T05:32:57.606Z,22.95
2022-08-10T05:34:02.395Z,23.04
2022-08-10T05:35:05.780Z,23.16
2022-08-10T05:36:09.146Z,23.21
2022-08-10T05:38:13.490Z,23.24
2022-08-10T05:38:35.592Z,23.31
2022-08-10T05:39:39.838Z,23.48
2022-08-10T05:40:47.214Z,23.46
2022-08-10T05:41:54.406Z,23.76
2022-08-10T05:42:56.918Z,23.56
2022-08-10T05:44:00.215Z,23.39
2022-08-10T05:45:02.645Z,23.41
2022-08-10T05:46:17.572Z,23.46
2022-08-10T05:47:23.486Z,23.70
2022-08-10T05:48:57.252Z,23.72
2022-08-10T05:49:49.049Z,23.97
2022-08-10T05:50:51.276Z,23.79
2022-08-10T05:51:53.484Z,23.76
2022-08-10T05:52:55.725Z,23.83
2022-08-10T05:54:03.982Z,24.04
2022-08-10T05:55:09.265Z,23.86
2022-08-10T05:56:12.581Z,23.93
2022-08-10T05:57:16.717Z,24.20
2022-08-10T05:58:18.980Z,24.15
2022-08-10T06:00:34.142Z,24.42
2022-08-10T06:00:49.833Z,24.59
2022-08-10T06:02:31.545Z,24.71
2022-08-10T06:03:18.455Z,24.49
2022-08-10T06:04:33.361Z,24.85
2022-08-10T06:05:39.616Z,24.84
2022-08-10T06:06:45.719Z,24.86
2022-08-10T06:08:15.690Z,25.13
2022-08-10T06:09:19.453Z,24.96
2022-08-10T06:10:32.440Z,24.95
2022-08-10T06:12:26.666Z,24.78
2022-08-10T06:13:29.834Z,25.00
2022-08-10T06:14:59.883Z,25.10
2022-08-10T06:16:10.321Z,25.34
2022-08-10T06:17:13.701Z,25.34
2022-08-10T06:18:16.480Z,25.57
2022-08-10T06:19:19.240Z,25.92
2022-08-10T06:20:22.086Z,26.16
2022-08-10T06:21:25.040Z,26.29
2022-08-10T06:22:30.059Z,26.62
2022-08-10T06:23:33.379Z,27.45
2022-08-10T06:24:57.126Z,28.06
2022-08-10T06:26:10.219Z,29.30
2022-08-10T06:27:15.648Z,29.44
2022-08-10T06:28:19.931Z,30.51
2022-08-10T06:29:24.071Z,30.95
2022-08-10T06:30:27.435Z,30.89
2022-08-10T06:31:48.209Z,31.23
2022-08-10T06:32:53.750Z,31.75
2022-08-10T06:33:57.955Z,32.31
2022-08-10T06:35:01.511Z,32.43
2022-08-10T06:36:05.770Z,32.72
2022-08-10T06:37:09.665Z,33.34
2022-08-10T06:38:14.067Z,33.25
2022-08-10T06:39:33.146Z,32.69
2022-08-10T06:40:39.503Z,32.65
2022-08-10T06:42:14.261Z,32.82
2022-08-10T06:43:15.643Z,32.72
2022-08-10T06:44:25.627Z,32.85
2022-08-10T06:45:33.287Z,32.78
2022-08-10T06:46:46.235Z,32.00
2022-08-10T06:48:01.536Z,32.74
2022-08-10T06:49:07.187Z,32.66
2022-08-10T06:50:55.883Z,32.69
2022-08-10T06:52:01.348Z,33.15
2022-08-10T06:53:06.930Z,33.38
2022-08-10T06:54:12.204Z,33.17
2022-08-10T06:55:16.974Z,33.42
2022-08-10T06:56:37.757Z,33.47
2022-08-10T06:57:44.594Z,33.07
2022-08-10T06:59:21.370Z,32.83
2022-08-10T07:00:33.796Z,33.17
2022-08-10T07:01:39.663Z,33.21
2022-08-10T07:02:57.420Z,33.56
2022-08-10T07:04:13.792Z,34.21
2022-08-10T07:05:29.183Z,34.32
2022-08-10T07:06:35.093Z,34.16
2022-08-10T07:07:41.787Z,34.21
2022-08-10T07:08:45.688Z,33.71
2022-08-10T07:09:49.295Z,33.50
2022-08-10T07:10:53.165Z,33.82
2022-08-10T07:11:57.382Z,34.00
2022-08-10T07:13:11.409Z,33.35
2022-08-10T07:14:18.536Z,33.43
2022-08-10T07:15:22.009Z,33.86
2022-08-10T07:16:28.618Z,33.80
2022-08-10T07:17:35.889Z,34.36
2022-08-10T07:18:43.314Z,34.43
2022-08-10T07:19:50.247Z,34.80
2022-08-10T07:20:55.230Z,35.39
2022-08-10T07:21:58.192Z,35.78
2022-08-10T07:23:55.334Z,35.78
2022-08-10T07:24:27.481Z,35.75
2022-08-10T07:25:31.076Z,35.92
2022-08-10T07:26:36.289Z,36.34
2022-08-10T07:27:58.643Z,36.51
2022-08-10T07:29:06.679Z,37.14
2022-08-10T07:30:09.541Z,36.92
2022-08-10T07:31:31.111Z,37.32
2022-08-10T07:32:37.345Z,37.20
2022-08-10T07:33:42.403Z,37.52
2022-08-10T07:34:48.095Z,37.33
2022-08-10T07:35:50.945Z,36.74
2022-08-10T07:36:55.808Z,36.64
2022-08-10T07:37:59.734Z,36.51
2022-08-10T07:39:05.047Z,36.51
2022-08-10T07:40:09.093Z,36.70
2022-08-10T07:41:12.444Z,36.69
2022-08-10T07:42:18.557Z,36.94
2022-08-10T07:43:24.081Z,36.84
2022-08-10T07:44:28.897Z,36.53
2022-08-10T07:45:33.532Z,36.33
2022-08-10T07:46:41.114Z,36.72
2022-08-10T07:48:07.965Z,37.02
2022-08-10T07:49:23.675Z,37.61
2022-08-10T07:50:27.563Z,37.43
2022-08-10T07:51:36.622Z,37.20
2022-08-10T07:52:40.024Z,37.33
2022-08-10T07:53:46.888Z,37.57
2022-08-10T07:54:52.330Z,37.41
2022-08-10T07:56:03.407Z,36.90
2022-08-10T07:57:31.019Z,36.63
2022-08-10T07:58:48.328Z,37.50
2022-08-10T08:00:01.908Z,37.03
2022-08-10T08:01:16.142Z,37.13
2022-08-10T08:02:29.068Z,37.13
2022-08-10T08:03:35.958Z,36.82
2022-08-10T08:04:39.812Z,37.88
2022-08-10T08:06:02.917Z,38.16
2022-08-10T08:07:08.547Z,38.36
2022-08-10T08:08:14.776Z,38.14
2022-08-10T08:09:20.522Z,38.20
2022-08-10T08:10:25.172Z,38.72
2022-08-10T08:11:28.788Z,37.87
2022-08-10T08:12:36.752Z,38.91
2022-08-10T08:13:40.286Z,38.91
2022-08-10T08:14:44.408Z,38.96
2022-08-10T08:16:18.180Z,38.84
2022-08-10T08:17:12.073Z,38.96
2022-08-10T08:18:20.541Z,38.66
2022-08-10T08:19:37.746Z,39.15
2022-08-10T08:20:48.321Z,39.74
2022-08-10T08:24:08.803Z,39.45
2022-08-10T08:24:11.141Z,38.47
2022-08-10T08:24:42.340Z,39.44
2022-08-10T08:25:46.295Z,39.67
2022-08-10T08:26:52.200Z,40.25
2022-08-10T08:27:56.789Z,40.25
2022-08-10T08:29:00.898Z,39.31
2022-08-10T08:30:09.015Z,39.12
2022-08-10T08:31:13.791Z,39.23
2022-08-10T08:32:18.603Z,39.24
2022-08-10T08:33:41.971Z,39.30
2022-08-10T08:34:45.109Z,38.53
2022-08-10T08:35:49.201Z,38.37
2022-08-10T08:36:57.341Z,38.83
2022-08-10T08:38:33.239Z,38.57
2022-08-10T08:39:25.740Z,39.02
2022-08-10T08:40:38.786Z,39.36
2022-08-10T08:42:18.122Z,39.96
2022-08-10T08:43:53.962Z,39.91
2022-08-10T08:45:07.616Z,40.50
2022-08-10T08:46:28.807Z,40.59
2022-08-10T08:48:04.397Z,40.93
2022-08-10T08:50:04.955Z,40.71
2022-08-10T08:51:04.474Z,41.26
2022-08-10T08:52:18.653Z,40.87
2022-08-10T08:54:02.636Z,40.98
2022-08-10T08:56:03.013Z,40.92
2022-08-10T08:57:22.922Z,41.03
2022-08-10T08:59:02.349Z,41.81
2022-08-10T09:00:14.506Z,41.44
2022-08-10T09:01:38.139Z,41.27
2022-08-10T09:03:22.996Z,42.33
2022-08-10T09:04:46.637Z,41.72
2022-08-10T09:06:29.825Z,41.70
2022-08-10T09:08:01.473Z,41.49
2022-08-10T09:09:29.616Z,41.46
2022-08-10T09:10:37.838Z,41.52
2022-08-10T09:12:17.558Z,42.24
2022-08-10T09:13:32.125Z,41.99
2022-08-10T09:14:56.324Z,42.23
2022-08-10T09:16:35.241Z,41.43
2022-08-10T09:17:52.154Z,41.59
2022-08-10T09:19:06.976Z,41.24
2022-08-10T09:20:19.049Z,41.69
2022-08-10T09:21:55.198Z,41.39
2022-08-10T09:24:04.285Z,41.96
2022-08-10T09:25:16.289Z,42.28
2022-08-10T09:26:20.490Z,41.59
2022-08-10T09:27:35.193Z,42.53
2022-08-10T09:28:41.654Z,41.28
2022-08-10T09:29:53.656Z,41.14
2022-08-10T09:31:22.052Z,41.69
2022-08-10T09:36:17.573Z,41.46
2022-08-10T09:36:23.157Z,41.50
2022-08-10T09:36:33.417Z,41.04
2022-08-10T09:38:02.272Z,41.62
2022-08-10T09:40:56.327Z,41.52
2022-08-10T09:41:40.488Z,41.59
2022-08-10T09:43:26.193Z,41.35
2022-08-10T09:44:58.068Z,41.96
2022-08-10T09:46:27.498Z,42.94
2022-08-10T09:48:28.423Z,43.37
2022-08-10T09:49:55.002Z,43.63
2022-08-10T09:51:45.454Z,43.54
2022-08-10T09:52:44.470Z,43.66
2022-08-10T09:53:52.670Z,43.75
2022-08-10T09:55:13.319Z,42.46
2022-08-10T09:56:47.574Z,43.67
2022-08-10T09:58:02.215Z,44.69
2022-08-10T09:59:27.032Z,45.09
2022-08-10T10:00:47.631Z,45.77
2022-08-10T10:02:02.998Z,45.28
2022-08-10T10:03:09.491Z,45.70
2022-08-10T10:04:24.027Z,45.67
2022-08-10T10:05:51.304Z,45.96
2022-08-10T10:07:10.421Z,45.83
2022-08-10T10:08:43.254Z,45.74
2022-08-10T10:09:45.463Z,45.28
2022-08-10T10:11:09.405Z,45.31
2022-08-10T10:12:20.360Z,44.96
2022-08-10T10:14:03.121Z,44.61
2022-08-10T10:15:24.399Z,44.20
2022-08-10T10:16:39.421Z,43.88
2022-08-10T10:18:04.032Z,44.61
2022-08-10T10:19:40.330Z,43.82
2022-08-10T10:20:54.803Z,44.52
2022-08-10T10:22:26.186Z,44.84
2022-08-10T10:24:19.894Z,45.42
2022-08-10T10:25:50.395Z,45.02
2022-08-10T10:26:58.041Z,45.11
2022-08-10T10:29:11.314Z,46.40
2022-08-10T10:30:12.498Z,43.60
2022-08-10T10:31:34.117Z,42.84
2022-08-10T10:32:58.167Z,43.64
2022-08-10T10:34:23.277Z,43.38
2022-08-10T10:35:50.002Z,43.67
2022-08-10T10:36:54.087Z,43.30
2022-08-10T10:38:00.851Z,43.29
2022-08-10T10:39:15.487Z,42.91
2022-08-10T10:40:19.786Z,42.38
2022-08-10T10:41:29.386Z,43.06
2022-08-10T10:42:46.565Z,42.80
2022-08-10T10:44:22.828Z,43.57
2022-08-10T10:45:50.734Z,44.22
2022-08-10T10:47:25.187Z,44.41
2022-08-10T10:48:45.692Z,45.14
2022-08-10T10:49:54.142Z,45.11
2022-08-10T10:51:37.521Z,45.65
2022-08-10T10:53:05.104Z,45.73
2022-08-10T10:54:20.047Z,44.83
2022-08-10T10:56:15.029Z,45.62
2022-08-10T10:58:00.129Z,46.20
2022-08-10T10:59:54.310Z,45.07
2022-08-10T11:00:56.759Z,46.00
2022-08-10T11:02:27.738Z,45.19
2022-08-10T11:04:03.925Z,45.91
2022-08-10T11:05:33.747Z,45.81
2022-08-10T11:07:40.238Z,46.44
2022-08-10T11:08:52.097Z,46.20
2022-08-10T11:10:09.135Z,46.61
2022-08-10T11:12:00.513Z,46.38
2022-08-10T11:12:57.740Z,46.85
2022-08-10T11:14:29.341Z,46.88
2022-08-10T11:15:42.672Z,46.17
2022-08-10T11:17:02.574Z,45.93
2022-08-10T11:18:15.669Z,46.09
2022-08-10T11:20:02.748Z,45.89
2022-08-10T11:21:27.712Z,46.00
2022-08-10T11:22:51.426Z,46.32
2022-08-10T11:24:42.754Z,46.51
2022-08-10T11:25:31.818Z,47.18
2022-08-10T11:26:47.859Z,47.14
2022-08-10T11:27:52.547Z,46.27
2022-08-10T11:29:30.310Z,45.50
2022-08-10T11:30:45.847Z,44.50
2022-08-10T11:31:55.933Z,43.65
2022-08-10T11:33:09.844Z,44.14
2022-08-10T11:34:48.194Z,43.38
2022-08-10T11:35:48.631Z,44.27
2022-08-10T11:36:53.806Z,44.45
2022-08-10T11:38:29.773Z,44.72
2022-08-10T11:40:06.663Z,45.92
2022-08-10T11:42:09.880Z,46.20
2022-08-10T11:43:00.015Z,46.22
2022-08-10T11:44:21.357Z,46.57
2022-08-10T11:45:34.376Z,46.24
2022-08-10T11:46:42.265Z,45.79
2022-08-10T11:47:44.389Z,45.02
2022-08-10T11:48:56.997Z,45.47
2022-08-10T11:50:27.101Z,45.89
2022-08-10T11:51:41.942Z,45.73
2022-08-10T11:53:02.715Z,44.95
2022-08-10T11:54:33.848Z,44.02
2022-08-10T11:55:36.264Z,43.08
2022-08-10T11:56:52.653Z,43.36
2022-08-10T11:57:58.556Z,44.22
2022-08-10T11:59:19.832Z,43.93
2022-08-10T12:00:24.044Z,44.19
2022-08-10T12:01:30.744Z,43.83
2022-08-10T12:02:35.612Z,43.31
2022-08-10T12:03:41.599Z,42.28
2022-08-10T12:04:50.355Z,42.48
2022-08-10T12:05:55.400Z,42.23
2022-08-10T12:06:59.667Z,42.68
2022-08-10T12:10:06.240Z,43.55
2022-08-10T12:10:09.635Z,44.59
2022-08-10T12:10:50.719Z,44.87
2022-08-10T12:11:54.130Z,45.44
2022-08-10T12:13:11.651Z,45.64
2022-08-10T12:14:48.894Z,44.99
2022-08-10T12:16:05.764Z,44.52
2022-08-10T12:17:24.710Z,44.81
2022-08-10T12:18:46.263Z,44.55
2022-08-10T12:20:03.946Z,44.75
2022-08-10T12:21:21.562Z,45.18
2022-08-10T12:22:31.630Z,43.88
2022-08-10T12:23:42.658Z,43.68
2022-08-10T12:24:56.930Z,43.20
2022-08-10T12:26:07.679Z,43.76
2022-08-10T12:27:16.650Z,44.32
2022-08-10T12:28:49.204Z,44.83
2022-08-10T12:30:04.724Z,44.24
2022-08-10T12:31:11.289Z,43.19
2022-08-10T12:32:25.578Z,42.98
2022-08-10T12:34:01.799Z,43.60
2022-08-10T12:35:27.706Z,43.48
2022-08-10T12:36:39.967Z,43.12
2022-08-10T12:38:10.126Z,43.58
2022-08-10T12:39:15.429Z,43.91
2022-08-10T12:40:36.386Z,44.02
2022-08-10T12:42:03.357Z,44.21
2022-08-10T12:44:06.949Z,44.20
2022-08-10T12:45:16.062Z,44.09
2022-08-10T12:46:31.601Z,43.67
2022-08-10T12:48:20.839Z,43.48
2022-08-10T12:49:34.781Z,44.58
2022-08-10T12:50:46.805Z,44.85
2022-08-10T12:52:09.287Z,44.45
2022-08-10T12:53:25.355Z,44.21
2022-08-10T12:54:33.930Z,43.61
2022-08-10T12:55:38.827Z,43.31
2022-08-10T12:56:46.978Z,42.98
2022-08-10T12:57:53.873Z,43.31
2022-08-10T12:59:01.422Z,42.40
2022-08-10T13:00:07.163Z,43.58
2022-08-10T13:01:23.173Z,42.55
2022-08-10T13:02:31.727Z,43.04
2022-08-10T13:04:20.583Z,42.40
2022-08-10T13:05:04.881Z,42.10
2022-08-10T13:06:09.638Z,42.39
2022-08-10T13:08:03.810Z,41.61
2022-08-10T13:08:55.344Z,41.31
2022-08-10T13:10:12.798Z,41.41
2022-08-10T13:12:34.368Z,41.65
2022-08-10T13:12:49.330Z,42.38
2022-08-10T13:13:54.998Z,41.19
2022-08-10T13:15:03.829Z,41.42
2022-08-10T13:16:27.047Z,41.47
2022-08-10T13:17:40.092Z,41.95
2022-08-10T13:18:46.351Z,41.94
2022-08-10T13:19:55.698Z,41.30
2022-08-10T13:21:05.067Z,41.73
2022-08-10T13:22:27.474Z,40.94
2022-08-10T13:23:32.960Z,40.14
2022-08-10T13:24:39.739Z,40.12
2022-08-10T13:25:48.628Z,40.15
2022-08-10T13:27:24.474Z,40.22
2022-08-10T13:28:36.638Z,40.48
2022-08-10T13:29:58.801Z,41.09
2022-08-10T13:31:16.707Z,40.89
2022-08-10T13:32:22.272Z,41.14
2022-08-10T13:34:40.215Z,40.62
2022-08-10T13:34:51.566Z,40.93
2022-08-10T13:35:58.143Z,40.33
2022-08-10T13:37:09.380Z,40.47
2022-08-10T13:38:15.884Z,39.94
2022-08-10T13:39:20.661Z,39.58
2022-08-10T13:40:26.260Z,40.06
2022-08-10T13:41:32.501Z,39.52
2022-08-10T13:42:37.564Z,39.82
2022-08-10T13:43:50.885Z,39.87
2022-08-10T13:44:54.618Z,39.46
2022-08-10T13:45:58.020Z,39.59
2022-08-10T13:47:00.634Z,39.73
2022-08-10T13:48:17.354Z,40.22
2022-08-10T13:49:21.581Z,39.83
2022-08-10T13:50:33.623Z,39.68
2022-08-10T13:51:57.299Z,39.78
2022-08-10T13:53:01.612Z,40.21
2022-08-10T13:54:05.640Z,40.10
2022-08-10T13:55:17.143Z,40.47
2022-08-10T13:56:21.196Z,40.03
2022-08-10T13:57:35.064Z,40.34
2022-08-10T13:58:42.204Z,39.24
2022-08-10T14:00:34.359Z,39.20
2022-08-10T14:01:17.794Z,39.22
2022-08-10T14:02:31.433Z,38.94
2022-08-10T14:03:37.455Z,37.28
2022-08-10T14:04:46.403Z,37.03
2022-08-10T14:05:54.088Z,37.44
2022-08-10T14:06:59.290Z,37.23
2022-08-10T14:08:04.318Z,37.39
2022-08-10T14:09:10.918Z,37.58
2022-08-10T14:10:16.495Z,37.70
2022-08-10T14:11:21.453Z,38.13
2022-08-10T14:12:31.875Z,38.35
2022-08-10T14:13:39.576Z,38.44
2022-08-10T14:14:44.060Z,38.00
2022-08-10T14:15:49.342Z,38.04
2022-08-10T14:16:52.768Z,37.75
2022-08-10T14:17:58.079Z,37.51
2022-08-10T14:19:10.143Z,37.75
2022-08-10T14:20:17.941Z,37.25
2022-08-10T14:21:23.360Z,36.68
2022-08-10T14:22:33.662Z,36.67
2022-08-10T14:23:51.890Z,36.98
2022-08-10T14:25:08.852Z,37.45
2022-08-10T14:26:15.843Z,37.08
2022-08-10T14:27:20.271Z,37.18
2022-08-10T14:28:31.254Z,37.07
2022-08-10T14:29:48.047Z,37.31
2022-08-10T14:31:02.561Z,37.67
2022-08-10T14:32:08.782Z,37.31
2022-08-10T14:33:18.398Z,37.31
2022-08-10T14:34:59.166Z,37.49
2022-08-10T14:36:18.995Z,37.67
2022-08-10T14:37:17.765Z,37.48
2022-08-10T14:38:22.638Z,37.13
2022-08-10T14:39:48.608Z,36.91
2022-08-10T14:40:53.719Z,36.62
2022-08-10T14:42:01.254Z,36.64
2022-08-10T14:43:28.634Z,36.77
2022-08-10T14:44:33.495Z,36.91
2022-08-10T14:45:39.451Z,37.33
2022-08-10T14:46:51.767Z,37.83
2022-08-10T14:48:01.200Z,38.01
2022-08-10T14:49:26.313Z,38.12
2022-08-10T14:50:35.596Z,37.33
2022-08-10T14:51:53.597Z,37.01
2022-08-10T14:53:20.839Z,36.68
2022-08-10T14:54:32.337Z,37.04
2022-08-10T14:55:57.609Z,37.16
2022-08-10T14:57:16.018Z,36.93
2022-08-10T14:58:24.927Z,37.28
2022-08-10T15:00:22.879Z,37.20
2022-08-10T15:00:56.248Z,37.44
2022-08-10T15:02:40.228Z,37.04
2022-08-10T15:04:01.228Z,37.04
2022-08-10T15:05:03.230Z,36.09
2022-08-10T15:06:18.049Z,35.88
2022-08-10T15:07:29.664Z,36.49
2022-08-10T15:08:36.849Z,36.10
2022-08-10T15:10:00.434Z,36.75
2022-08-10T15:11:05.457Z,36.72
2022-08-10T15:12:14.126Z,37.11
2022-08-10T15:13:34.757Z,37.10
2022-08-10T15:14:45.139Z,37.77
2022-08-10T15:16:10.930Z,38.15
2022-08-10T15:17:23.626Z,38.12
2022-08-10T15:18:31.579Z,37.73
2022-08-10T15:20:02.843Z,37.77
2022-08-10T15:21:02.490Z,37.47
2022-08-10T15:22:35.948Z,37.51
2022-08-10T15:23:32.961Z,37.57
2022-08-10T15:24:59.464Z,37.85
2022-08-10T15:26:10.788Z,37.56
2022-08-10T15:27:19.475Z,37.28
2022-08-10T15:28:25.354Z,37.45
2022-08-10T15:29:56.936Z,36.90
2022-08-10T15:31:01.938Z,36.74
2022-08-10T15:32:25.968Z,37.16
2022-08-10T15:34:04.213Z,37.28
2022-08-10T15:35:26.678Z,36.97
2022-08-10T15:37:01.997Z,36.32
2022-08-10T15:38:14.970Z,36.76
2022-08-10T15:40:21.101Z,36.89